sensor_id;sensor_type;location;lat;lon;timestamp;pressure;altitude;pressure_sealevel;temperature;humidity
34177;BME280;20450;49.074;9.158;2023-02-23T00:00:54;99445.56;;;10.25;74.69
34177;BME280;20450;49.074;9.158;2023-02-23T00:03:21;99445.56;;;10.25;75.38
34177;BME280;20450;49.074;9.158;2023-02-23T00:05:48;99447.84;;;10.22;75.62
34177;BME280;20450;49.074;9.158;2023-02-23T00:08:15;99443.31;;;10.22;76.03
34177;BME280;20450;49.074;9.158;2023-02-23T00:10:42;99433.19;;;10.11;76.69
34177;BME280;20450;49.074;9.158;2023-02-23T00:13:09;99448.16;;;10.07;76.69
34177;BME280;20450;49.074;9.158;2023-02-23T00:15:36;99442.94;;;10.06;76.46
34177;BME280;20450;49.074;9.158;2023-02-23T00:18:04;99440.06;;;10.07;76.85
34177;BME280;20450;49.074;9.158;2023-02-23T00:20:31;99436.94;;;10.10;77.80
34177;BME280;20450;49.074;9.158;2023-02-23T00:22:58;99436.66;;;10.18;77.49
34177;BME280;20450;49.074;9.158;2023-02-23T00:25:25;99430.47;;;10.18;77.45
34177;BME280;20450;49.074;9.158;2023-02-23T00:27:52;99438.28;;;10.26;77.56
34177;BME280;20450;49.074;9.158;2023-02-23T00:30:19;99435.53;;;10.32;76.81
34177;BME280;20450;49.074;9.158;2023-02-23T00:32:49;99437.38;;;10.38;77.20
34177;BME280;20450;49.074;9.158;2023-02-23T00:35:18;99436.09;;;10.41;76.87
34177;BME280;20450;49.074;9.158;2023-02-23T00:37:46;99435.47;;;10.39;77.58
34177;BME280;20450;49.074;9.158;2023-02-23T00:40:16;99428.63;;;10.43;77.09
34177;BME280;20450;49.074;9.158;2023-02-23T00:42:44;99428.00;;;10.41;77.69
34177;BME280;20450;49.074;9.158;2023-02-23T00:45:13;99421.53;;;10.42;78.25
34177;BME280;20450;49.074;9.158;2023-02-23T00:47:41;99428.19;;;10.46;77.24
34177;BME280;20450;49.074;9.158;2023-02-23T00:50:13;99430.81;;;10.52;77.98
34177;BME280;20450;49.074;9.158;2023-02-23T00:52:46;99423.75;;;10.51;77.95
34177;BME280;20450;49.074;9.158;2023-02-23T00:55:13;99421.81;;;10.34;78.08
34177;BME280;20450;49.074;9.158;2023-02-23T00:57:41;99423.66;;;10.02;80.84
34177;BME280;20450;49.074;9.158;2023-02-23T01:00:11;99419.56;;;9.93;81.31
34177;BME280;20450;49.074;9.158;2023-02-23T01:02:38;99415.34;;;10.10;80.83
34177;BME280;20450;49.074;9.158;2023-02-23T01:05:05;99412.78;;;10.22;80.49
34177;BME280;20450;49.074;9.158;2023-02-23T01:07:33;99419.00;;;10.22;80.21
34177;BME280;20450;49.074;9.158;2023-02-23T01:10:01;99416.69;;;10.26;80.08
34177;BME280;20450;49.074;9.158;2023-02-23T01:12:28;99423.34;;;10.23;79.88
34177;BME280;20450;49.074;9.158;2023-02-23T01:14:55;99423.38;;;10.17;80.98
34177;BME280;20450;49.074;9.158;2023-02-23T01:17:22;99426.28;;;10.22;80.74
34177;BME280;20450;49.074;9.158;2023-02-23T01:19:49;99417.09;;;10.29;81.04
34177;BME280;20450;49.074;9.158;2023-02-23T01:22:15;99416.22;;;10.35;81.16
34177;BME280;20450;49.074;9.158;2023-02-23T01:24:43;99422.81;;;10.39;80.54
34177;BME280;20450;49.074;9.158;2023-02-23T01:27:12;99420.72;;;10.41;80.99
34177;BME280;20450;49.074;9.158;2023-02-23T01:29:38;99422.16;;;10.44;80.61
34177;BME280;20450;49.074;9.158;2023-02-23T01:32:06;99422.34;;;10.49;81.33
34177;BME280;20450;49.074;9.158;2023-02-23T01:34:33;99424.81;;;10.50;80.56
34177;BME280;20450;49.074;9.158;2023-02-23T01:37:00;99423.31;;;10.54;80.69
34177;BME280;20450;49.074;9.158;2023-02-23T01:39:27;99419.56;;;10.55;81.23
34177;BME280;20450;49.074;9.158;2023-02-23T01:41:55;99421.81;;;10.58;80.62
34177;BME280;20450;49.074;9.158;2023-02-23T01:47:48;99412.03;;;10.64;80.75
34177;BME280;20450;49.074;9.158;2023-02-23T01:50:20;99411.13;;;10.45;81.75
34177;BME280;20450;49.074;9.158;2023-02-23T01:52:52;99413.22;;;10.43;81.67
34177;BME280;20450;49.074;9.158;2023-02-23T01:55:22;99407.81;;;10.43;81.79
34177;BME280;20450;49.074;9.158;2023-02-23T01:57:56;99416.97;;;10.42;82.63
34177;BME280;20450;49.074;9.158;2023-02-23T02:00:28;99415.03;;;10.25;83.81
34177;BME280;20450;49.074;9.158;2023-02-23T02:02:58;99421.41;;;9.92;85.56
34177;BME280;20450;49.074;9.158;2023-02-23T02:05:27;99414.50;;;10.03;85.06
34177;BME280;20450;49.074;9.158;2023-02-23T02:07:55;99418.63;;;10.12;85.07
34177;BME280;20450;49.074;9.158;2023-02-23T02:10:26;99414.63;;;10.21;84.46
34177;BME280;20450;49.074;9.158;2023-02-23T02:12:55;99412.13;;;10.26;84.17
34177;BME280;20450;49.074;9.158;2023-02-23T02:15:29;99407.09;;;10.30;83.88
34177;BME280;20450;49.074;9.158;2023-02-23T02:18:09;99405.84;;;10.32;83.58
34177;BME280;20450;49.074;9.158;2023-02-23T02:21:12;99405.63;;;10.34;83.63
34177;BME280;20450;49.074;9.158;2023-02-23T02:24:20;99409.97;;;10.35;83.72
34177;BME280;20450;49.074;9.158;2023-02-23T02:27:19;99411.78;;;10.16;84.27
34177;BME280;20450;49.074;9.158;2023-02-23T02:30:24;99406.81;;;10.13;84.57
34177;BME280;20450;49.074;9.158;2023-02-23T02:33:47;99408.44;;;9.76;86.41
34177;BME280;20450;49.074;9.158;2023-02-23T02:39:42;99396.56;;;9.84;86.46
34177;BME280;20450;49.074;9.158;2023-02-23T02:42:24;99398.16;;;9.98;86.43
34177;BME280;20450;49.074;9.158;2023-02-23T02:45:04;99402.28;;;10.07;86.09
34177;BME280;20450;49.074;9.158;2023-02-23T02:47:41;99402.84;;;10.16;85.63
34177;BME280;20450;49.074;9.158;2023-02-23T02:50:18;99408.59;;;10.26;85.07
34177;BME280;20450;49.074;9.158;2023-02-23T02:52:55;99397.97;;;10.31;84.19
34177;BME280;20450;49.074;9.158;2023-02-23T02:55:31;99403.50;;;10.36;84.64
34177;BME280;20450;49.074;9.158;2023-02-23T02:58:01;99399.56;;;10.38;84.82
34177;BME280;20450;49.074;9.158;2023-02-23T03:00:36;99398.28;;;10.41;84.47
34177;BME280;20450;49.074;9.158;2023-02-23T03:03:04;99393.13;;;10.39;84.78
34177;BME280;20450;49.074;9.158;2023-02-23T03:05:36;99402.19;;;10.20;84.40
34177;BME280;20450;49.074;9.158;2023-02-23T03:08:16;99393.09;;;10.15;83.68
34177;BME280;20450;49.074;9.158;2023-02-23T03:10:54;99393.19;;;9.95;84.08
34177;BME280;20450;49.074;9.158;2023-02-23T03:13:35;99392.91;;;9.72;85.69
34177;BME280;20450;49.074;9.158;2023-02-23T03:16:20;99387.22;;;9.49;86.69
34177;BME280;20450;49.074;9.158;2023-02-23T03:19:05;99387.44;;;9.47;87.07
34177;BME280;20450;49.074;9.158;2023-02-23T03:21:46;99393.00;;;9.52;86.74
34177;BME280;20450;49.074;9.158;2023-02-23T03:24:24;99393.84;;;9.46;86.98
34177;BME280;20450;49.074;9.158;2023-02-23T03:27:05;99392.59;;;9.49;86.81
34177;BME280;20450;49.074;9.158;2023-02-23T03:29:47;99394.88;;;9.52;87.66
34177;BME280;20450;49.074;9.158;2023-02-23T03:32:24;99400.44;;;9.57;86.73
34177;BME280;20450;49.074;9.158;2023-02-23T03:35:01;99398.72;;;9.69;86.93
34177;BME280;20450;49.074;9.158;2023-02-23T03:37:38;99395.38;;;9.73;86.45
34177;BME280;20450;49.074;9.158;2023-02-23T03:40:18;99395.44;;;9.67;86.73
34177;BME280;20450;49.074;9.158;2023-02-23T03:42:51;99401.63;;;9.67;86.38
34177;BME280;20450;49.074;9.158;2023-02-23T03:45:31;99397.06;;;9.68;86.11
34177;BME280;20450;49.074;9.158;2023-02-23T03:48:06;99396.88;;;9.69;86.41
34177;BME280;20450;49.074;9.158;2023-02-23T03:50:38;99393.63;;;9.92;85.70
34177;BME280;20450;49.074;9.158;2023-02-23T03:53:09;99392.47;;;10.06;85.22
34177;BME280;20450;49.074;9.158;2023-02-23T03:55:45;99399.66;;;9.87;85.33
34177;BME280;20450;49.074;9.158;2023-02-23T03:58:21;99393.84;;;9.90;85.81
34177;BME280;20450;49.074;9.158;2023-02-23T04:00:52;99404.78;;;10.09;85.53
34177;BME280;20450;49.074;9.158;2023-02-23T04:03:25;99393.03;;;10.21;84.76
34177;BME280;20450;49.074;9.158;2023-02-23T04:05:56;99395.25;;;10.31;84.62
34177;BME280;20450;49.074;9.158;2023-02-23T04:08:32;99395.19;;;10.37;84.03
34177;BME280;20450;49.074;9.158;2023-02-23T04:11:12;99399.13;;;10.41;84.97
34177;BME280;20450;49.074;9.158;2023-02-23T04:13:48;99401.19;;;10.46;84.38
34177;BME280;20450;49.074;9.158;2023-02-23T04:16:27;99410.25;;;10.51;84.11
34177;BME280;20450;49.074;9.158;2023-02-23T04:18:56;99403.44;;;10.49;84.43
34177;BME280;20450;49.074;9.158;2023-02-23T04:21:24;99403.44;;;10.49;84.36
34177;BME280;20450;49.074;9.158;2023-02-23T04:23:51;99404.03;;;10.51;84.36
34177;BME280;20450;49.074;9.158;2023-02-23T04:26:20;99406.94;;;10.49;84.05
34177;BME280;20450;49.074;9.158;2023-02-23T04:28:47;99412.97;;;10.51;84.64
34177;BME280;20450;49.074;9.158;2023-02-23T04:31:14;99409.66;;;10.49;84.06
34177;BME280;20450;49.074;9.158;2023-02-23T04:33:41;99408.44;;;10.45;84.11
34177;BME280;20450;49.074;9.158;2023-02-23T04:36:13;99407.81;;;10.43;85.21
34177;BME280;20450;49.074;9.158;2023-02-23T04:38:40;99420.13;;;10.39;84.63
34177;BME280;20450;49.074;9.158;2023-02-23T04:41:11;99409.94;;;10.41;85.44
34177;BME280;20450;49.074;9.158;2023-02-23T04:43:39;99405.56;;;10.40;85.24
34177;BME280;20450;49.074;9.158;2023-02-23T04:46:06;99408.09;;;10.35;85.04
34177;BME280;20450;49.074;9.158;2023-02-23T04:48:33;99413.28;;;10.37;84.60
34177;BME280;20450;49.074;9.158;2023-02-23T04:51:01;99410.59;;;10.37;84.39
34177;BME280;20450;49.074;9.158;2023-02-23T04:53:28;99416.34;;;10.40;84.71
34177;BME280;20450;49.074;9.158;2023-02-23T04:55:56;99408.25;;;10.40;84.40
34177;BME280;20450;49.074;9.158;2023-02-23T04:58:23;99412.00;;;10.39;84.82
34177;BME280;20450;49.074;9.158;2023-02-23T05:00:51;99414.38;;;10.29;84.86
34177;BME280;20450;49.074;9.158;2023-02-23T05:03:19;99410.16;;;10.09;85.33
34177;BME280;20450;49.074;9.158;2023-02-23T05:05:51;99405.00;;;9.94;85.99
34177;BME280;20450;49.074;9.158;2023-02-23T05:08:18;99411.56;;;9.73;86.73
34177;BME280;20450;49.074;9.158;2023-02-23T05:10:46;99403.69;;;9.72;87.65
34177;BME280;20450;49.074;9.158;2023-02-23T05:13:13;99403.69;;;9.72;87.35
34177;BME280;20450;49.074;9.158;2023-02-23T05:15:39;99404.94;;;9.76;87.38
34177;BME280;20450;49.074;9.158;2023-02-23T05:18:08;99403.44;;;9.80;87.79
34177;BME280;20450;49.074;9.158;2023-02-23T05:20:35;99403.66;;;9.78;87.24
34177;BME280;20450;49.074;9.158;2023-02-23T05:23:02;99400.66;;;9.55;87.70
34177;BME280;20450;49.074;9.158;2023-02-23T05:25:29;99402.59;;;9.35;88.41
34177;BME280;20450;49.074;9.158;2023-02-23T05:27:56;99403.84;;;9.39;88.40
34177;BME280;20450;49.074;9.158;2023-02-23T05:30:23;99407.09;;;9.48;88.59
34177;BME280;20450;49.074;9.158;2023-02-23T05:32:49;99409.16;;;9.52;88.02
34177;BME280;20450;49.074;9.158;2023-02-23T05:35:18;99411.22;;;9.57;88.38
34177;BME280;20450;49.074;9.158;2023-02-23T05:37:45;99412.22;;;9.69;88.12
34177;BME280;20450;49.074;9.158;2023-02-23T05:40:12;99415.66;;;9.82;87.29
34177;BME280;20450;49.074;9.158;2023-02-23T05:42:40;99417.28;;;9.90;86.79
34177;BME280;20450;49.074;9.158;2023-02-23T05:45:07;99417.63;;;10.00;86.21
34177;BME280;20450;49.074;9.158;2023-02-23T05:47:34;99415.78;;;10.07;85.90
34177;BME280;20450;49.074;9.158;2023-02-23T05:50:00;99417.81;;;10.12;85.87
34177;BME280;20450;49.074;9.158;2023-02-23T05:52:30;99408.47;;;10.14;85.50
34177;BME280;20450;49.074;9.158;2023-02-23T05:54:57;99414.47;;;10.16;84.61
34177;BME280;20450;49.074;9.158;2023-02-23T05:57:24;99412.22;;;10.13;85.15
34177;BME280;20450;49.074;9.158;2023-02-23T05:59:51;99417.63;;;10.13;84.44
34177;BME280;20450;49.074;9.158;2023-02-23T06:02:18;99416.78;;;10.13;85.26
34177;BME280;20450;49.074;9.158;2023-02-23T06:04:45;99415.56;;;10.09;85.03
34177;BME280;20450;49.074;9.158;2023-02-23T06:07:11;99424.47;;;10.09;84.99
34177;BME280;20450;49.074;9.158;2023-02-23T06:09:41;99415.97;;;10.06;85.50
34177;BME280;20450;49.074;9.158;2023-02-23T06:12:10;99412.66;;;9.97;85.33
34177;BME280;20450;49.074;9.158;2023-02-23T06:14:37;99421.50;;;9.79;85.85
34177;BME280;20450;49.074;9.158;2023-02-23T06:17:04;99421.97;;;9.70;86.05
34177;BME280;20450;49.074;9.158;2023-02-23T06:19:30;99424.88;;;9.68;86.39
34177;BME280;20450;49.074;9.158;2023-02-23T06:21:57;99426.53;;;9.63;86.52
34177;BME280;20450;49.074;9.158;2023-02-23T06:24:24;99424.25;;;9.66;86.25
34177;BME280;20450;49.074;9.158;2023-02-23T06:26:53;99434.47;;;9.58;87.19
34177;BME280;20450;49.074;9.158;2023-02-23T06:29:19;99425.19;;;9.41;88.13
34177;BME280;20450;49.074;9.158;2023-02-23T06:31:46;99432.44;;;9.40;88.31
34177;BME280;20450;49.074;9.158;2023-02-23T06:34:14;99437.81;;;9.53;88.00
34177;BME280;20450;49.074;9.158;2023-02-23T06:36:41;99435.50;;;9.57;87.30
34177;BME280;20450;49.074;9.158;2023-02-23T06:39:09;99437.31;;;9.69;87.21
34177;BME280;20450;49.074;9.158;2023-02-23T06:41:37;99443.06;;;9.79;86.71
34177;BME280;20450;49.074;9.158;2023-02-23T06:44:05;99444.25;;;9.90;86.49
34177;BME280;20450;49.074;9.158;2023-02-23T06:46:32;99448.38;;;9.99;85.64
34177;BME280;20450;49.074;9.158;2023-02-23T06:49:00;99446.88;;;10.03;86.08
34177;BME280;20450;49.074;9.158;2023-02-23T06:51:27;99450.44;;;10.03;85.11
34177;BME280;20450;49.074;9.158;2023-02-23T06:53:54;99448.97;;;10.08;85.59
34177;BME280;20450;49.074;9.158;2023-02-23T06:56:21;99447.09;;;10.08;84.93
34177;BME280;20450;49.074;9.158;2023-02-23T06:58:48;99454.59;;;9.99;86.18
34177;BME280;20450;49.074;9.158;2023-02-23T07:01:16;99449.47;;;9.85;85.91
34177;BME280;20450;49.074;9.158;2023-02-23T07:03:43;99457.59;;;9.78;86.10
34177;BME280;20450;49.074;9.158;2023-02-23T07:06:10;99459.63;;;9.89;86.62
34177;BME280;20450;49.074;9.158;2023-02-23T07:08:37;99465.00;;;9.96;86.50
34177;BME280;20450;49.074;9.158;2023-02-23T07:11:08;99461.00;;;10.05;86.43
34177;BME280;20450;49.074;9.158;2023-02-23T07:13:38;99466.78;;;10.15;85.89
34177;BME280;20450;49.074;9.158;2023-02-23T07:16:06;99477.50;;;10.28;85.37
34177;BME280;20450;49.074;9.158;2023-02-23T07:18:35;99459.88;;;10.26;84.28
34177;BME280;20450;49.074;9.158;2023-02-23T07:21:02;99468.94;;;10.38;85.14
34177;BME280;20450;49.074;9.158;2023-02-23T07:23:28;99479.53;;;10.33;84.05
34177;BME280;20450;49.074;9.158;2023-02-23T07:25:55;99466.41;;;10.43;84.54
34177;BME280;20450;49.074;9.158;2023-02-23T07:28:22;99473.88;;;10.47;83.39
34177;BME280;20450;49.074;9.158;2023-02-23T07:30:50;99479.81;;;10.56;83.39
34177;BME280;20450;49.074;9.158;2023-02-23T07:33:16;99475.19;;;10.63;83.07
34177;BME280;20450;49.074;9.158;2023-02-23T07:35:44;99479.13;;;10.67;82.38
34177;BME280;20450;49.074;9.158;2023-02-23T07:38:12;99479.16;;;10.29;83.91
34177;BME280;20450;49.074;9.158;2023-02-23T07:40:38;99474.31;;;10.44;83.51
34177;BME280;20450;49.074;9.158;2023-02-23T07:43:05;99483.34;;;10.56;83.46
34177;BME280;20450;49.074;9.158;2023-02-23T07:45:33;99486.34;;;10.73;82.57
34177;BME280;20450;49.074;9.158;2023-02-23T07:48:00;99482.53;;;11.05;82.96
34177;BME280;20450;49.074;9.158;2023-02-23T07:50:27;99487.22;;;11.34;82.11
34177;BME280;20450;49.074;9.158;2023-02-23T07:52:55;99488.38;;;11.44;80.66
34177;BME280;20450;49.074;9.158;2023-02-23T07:55:22;99492.00;;;11.56;80.00
34177;BME280;20450;49.074;9.158;2023-02-23T07:57:49;99484.25;;;11.66;79.58
34177;BME280;20450;49.074;9.158;2023-02-23T08:00:18;99483.31;;;11.72;79.42
34177;BME280;20450;49.074;9.158;2023-02-23T08:02:50;99487.00;;;11.78;77.75
34177;BME280;20450;49.074;9.158;2023-02-23T08:05:20;99488.63;;;11.61;79.01
34177;BME280;20450;49.074;9.158;2023-02-23T08:07:47;99493.69;;;11.33;79.43
34177;BME280;20450;49.074;9.158;2023-02-23T08:10:16;99497.19;;;10.66;80.42
34177;BME280;20450;49.074;9.158;2023-02-23T08:12:43;99492.66;;;10.60;82.17
34177;BME280;20450;49.074;9.158;2023-02-23T08:15:10;99484.53;;;10.67;81.68
34177;BME280;20450;49.074;9.158;2023-02-23T08:17:38;99496.38;;;10.35;83.55
34177;BME280;20450;49.074;9.158;2023-02-23T08:20:07;99493.59;;;10.10;84.76
34177;BME280;20450;49.074;9.158;2023-02-23T08:22:37;99493.41;;;10.12;84.93
34177;BME280;20450;49.074;9.158;2023-02-23T08:25:16;99495.47;;;10.47;85.23
34177;BME280;20450;49.074;9.158;2023-02-23T08:27:43;99499.63;;;10.43;85.00
34177;BME280;20450;49.074;9.158;2023-02-23T08:30:11;99503.06;;;10.57;83.75
34177;BME280;20450;49.074;9.158;2023-02-23T08:32:42;99495.16;;;10.31;84.49
34177;BME280;20450;49.074;9.158;2023-02-23T08:35:09;99504.88;;;10.38;85.16
34177;BME280;20450;49.074;9.158;2023-02-23T08:37:37;99498.06;;;10.60;83.96
34177;BME280;20450;49.074;9.158;2023-02-23T08:40:04;99510.06;;;10.71;83.61
34177;BME280;20450;49.074;9.158;2023-02-23T08:42:33;99499.91;;;10.91;82.78
34177;BME280;20450;49.074;9.158;2023-02-23T08:45:01;99498.59;;;11.00;82.69
34177;BME280;20450;49.074;9.158;2023-02-23T08:47:28;99501.56;;;11.16;82.36
34177;BME280;20450;49.074;9.158;2023-02-23T08:49:56;99505.59;;;11.32;82.23
34177;BME280;20450;49.074;9.158;2023-02-23T08:52:23;99506.25;;;11.27;81.06
34177;BME280;20450;49.074;9.158;2023-02-23T08:54:50;99509.16;;;11.26;81.39
34177;BME280;20450;49.074;9.158;2023-02-23T08:57:18;99510.53;;;10.61;82.87
34177;BME280;20450;49.074;9.158;2023-02-23T08:59:46;99506.72;;;10.38;85.35
34177;BME280;20450;49.074;9.158;2023-02-23T09:02:13;99505.88;;;10.44;84.66
34177;BME280;20450;49.074;9.158;2023-02-23T09:04:41;99507.56;;;10.38;84.41
34177;BME280;20450;49.074;9.158;2023-02-23T09:07:13;99509.53;;;10.56;84.32
34177;BME280;20450;49.074;9.158;2023-02-23T09:09:42;99505.16;;;10.86;83.09
34177;BME280;20450;49.074;9.158;2023-02-23T09:12:11;99508.38;;;11.43;81.96
34177;BME280;20450;49.074;9.158;2023-02-23T09:14:38;99500.28;;;11.61;79.93
34177;BME280;20450;49.074;9.158;2023-02-23T09:17:06;99503.50;;;12.65;76.70
34177;BME280;20450;49.074;9.158;2023-02-23T09:19:33;99498.88;;;13.88;71.69
34177;BME280;20450;49.074;9.158;2023-02-23T09:22:00;99502.66;;;15.15;68.39
34177;BME280;20450;49.074;9.158;2023-02-23T09:24:27;99506.22;;;16.09;62.67
34177;BME280;20450;49.074;9.158;2023-02-23T09:26:54;99503.22;;;16.10;62.25
34177;BME280;20450;49.074;9.158;2023-02-23T09:29:21;99502.16;;;16.33;62.62
34177;BME280;20450;49.074;9.158;2023-02-23T09:31:48;99498.22;;;16.24;62.60
34177;BME280;20450;49.074;9.158;2023-02-23T09:34:16;99498.50;;;15.62;63.90
34177;BME280;20450;49.074;9.158;2023-02-23T09:36:43;99497.75;;;16.05;63.21
34177;BME280;20450;49.074;9.158;2023-02-23T09:39:10;99503.09;;;16.65;62.27
34177;BME280;20450;49.074;9.158;2023-02-23T09:41:59;99496.31;;;16.99;59.30
34177;BME280;20450;49.074;9.158;2023-02-23T09:44:44;99499.94;;;16.78;61.07
34177;BME280;20450;49.074;9.158;2023-02-23T09:47:28;99498.28;;;17.40;58.08
34177;BME280;20450;49.074;9.158;2023-02-23T09:50:14;99495.94;;;17.17;58.90
34177;BME280;20450;49.074;9.158;2023-02-23T09:52:50;99491.53;;;18.71;54.94
34177;BME280;20450;49.074;9.158;2023-02-23T09:55:23;99485.84;;;19.17;53.07
34177;BME280;20450;49.074;9.158;2023-02-23T09:57:52;99488.88;;;19.06;52.77
34177;BME280;20450;49.074;9.158;2023-02-23T10:00:25;99487.66;;;19.82;50.52
34177;BME280;20450;49.074;9.158;2023-02-23T10:03:07;99494.25;;;20.55;48.69
34177;BME280;20450;49.074;9.158;2023-02-23T10:05:47;99494.22;;;20.65;47.54
34177;BME280;20450;49.074;9.158;2023-02-23T10:08:28;99493.78;;;20.43;48.70
34177;BME280;20450;49.074;9.158;2023-02-23T10:11:10;99493.19;;;21.33;46.75
34177;BME280;20450;49.074;9.158;2023-02-23T10:13:54;99492.47;;;21.17;45.91
34177;BME280;20450;49.074;9.158;2023-02-23T10:16:37;99498.25;;;21.16;46.46
34177;BME280;20450;49.074;9.158;2023-02-23T10:19:19;99496.22;;;20.98;46.33
34177;BME280;20450;49.074;9.158;2023-02-23T10:21:54;99489.13;;;19.39;49.78
34177;BME280;20450;49.074;9.158;2023-02-23T10:24:27;99491.84;;;17.56;55.50
34177;BME280;20450;49.074;9.158;2023-02-23T10:27:04;99492.91;;;18.73;53.56
34177;BME280;20450;49.074;9.158;2023-02-23T10:29:40;99496.50;;;19.24;52.89
34177;BME280;20450;49.074;9.158;2023-02-23T10:32:17;99495.19;;;20.79;48.29
34177;BME280;20450;49.074;9.158;2023-02-23T10:34:52;99493.00;;;21.19;45.71
34177;BME280;20450;49.074;9.158;2023-02-23T10:37:23;99486.34;;;20.92;47.19
34177;BME280;20450;49.074;9.158;2023-02-23T10:39:52;99485.59;;;20.33;48.03
34177;BME280;20450;49.074;9.158;2023-02-23T10:42:23;99494.44;;;20.20;48.63
34177;BME280;20450;49.074;9.158;2023-02-23T10:44:53;99492.34;;;19.82;48.99
34177;BME280;20450;49.074;9.158;2023-02-23T10:47:25;99497.84;;;19.82;48.71
34177;BME280;20450;49.074;9.158;2023-02-23T10:49:57;99490.56;;;20.21;46.80
34177;BME280;20450;49.074;9.158;2023-02-23T10:52:33;99492.69;;;20.44;47.89
34177;BME280;20450;49.074;9.158;2023-02-23T10:55:21;99494.31;;;22.55;42.55
34177;BME280;20450;49.074;9.158;2023-02-23T10:58:00;99489.13;;;22.90;41.62
34177;BME280;20450;49.074;9.158;2023-02-23T11:00:37;99487.47;;;23.86;39.74
34177;BME280;20450;49.074;9.158;2023-02-23T11:03:25;99489.38;;;23.26;40.10
34177;BME280;20450;49.074;9.158;2023-02-23T11:05:59;99490.78;;;20.39;46.12
34177;BME280;20450;49.074;9.158;2023-02-23T11:08:31;99491.38;;;17.64;54.10
34177;BME280;20450;49.074;9.158;2023-02-23T11:11:17;99497.66;;;17.28;56.13
34177;BME280;20450;49.074;9.158;2023-02-23T11:13:50;99484.16;;;15.67;61.51
34177;BME280;20450;49.074;9.158;2023-02-23T11:16:19;99489.13;;;15.53;62.45
34177;BME280;20450;49.074;9.158;2023-02-23T11:19:04;99488.00;;;14.83;64.62
34177;BME280;20450;49.074;9.158;2023-02-23T11:21:50;99472.84;;;14.43;66.99
34177;BME280;20450;49.074;9.158;2023-02-23T11:24:22;99482.47;;;13.94;68.41
34177;BME280;20450;49.074;9.158;2023-02-23T11:26:54;99476.94;;;13.66;69.96
34177;BME280;20450;49.074;9.158;2023-02-23T11:29:27;99478.31;;;13.92;68.91
34177;BME280;20450;49.074;9.158;2023-02-23T11:31:58;99475.16;;;13.83;69.37
34177;BME280;20450;49.074;9.158;2023-02-23T11:34:39;99477.28;;;13.81;69.75
34177;BME280;20450;49.074;9.158;2023-02-23T11:37:21;99471.97;;;14.14;69.39
34177;BME280;20450;49.074;9.158;2023-02-23T11:40:25;99468.44;;;14.25;68.24
34177;BME280;20450;49.074;9.158;2023-02-23T11:43:34;99463.97;;;14.47;67.51
34177;BME280;20450;49.074;9.158;2023-02-23T11:46:09;99460.34;;;14.42;66.67
34177;BME280;20450;49.074;9.158;2023-02-23T11:48:48;99461.22;;;14.19;67.21
34177;BME280;20450;49.074;9.158;2023-02-23T11:51:27;99468.06;;;14.22;67.42
34177;BME280;20450;49.074;9.158;2023-02-23T11:53:58;99456.78;;;14.41;68.36
34177;BME280;20450;49.074;9.158;2023-02-23T11:56:30;99464.56;;;14.66;67.37
34177;BME280;20450;49.074;9.158;2023-02-23T11:59:02;99458.09;;;14.83;66.67
34177;BME280;20450;49.074;9.158;2023-02-23T12:01:43;99456.06;;;14.95;66.53
34177;BME280;20450;49.074;9.158;2023-02-23T12:04:25;99458.16;;;15.05;66.39
34177;BME280;20450;49.074;9.158;2023-02-23T12:07:17;99461.75;;;15.10;66.53
34177;BME280;20450;49.074;9.158;2023-02-23T12:09:59;99447.91;;;15.12;66.35
34177;BME280;20450;49.074;9.158;2023-02-23T12:12:42;99445.19;;;15.12;66.69
34177;BME280;20450;49.074;9.158;2023-02-23T12:15:26;99445.19;;;15.28;65.84
34177;BME280;20450;49.074;9.158;2023-02-23T12:18:03;99443.28;;;15.45;65.13
34177;BME280;20450;49.074;9.158;2023-02-23T12:20:40;99442.91;;;15.58;64.94
34177;BME280;20450;49.074;9.158;2023-02-23T12:23:17;99440.56;;;15.67;64.63
34177;BME280;20450;49.074;9.158;2023-02-23T12:25:52;99440.31;;;15.68;64.21
34177;BME280;20450;49.074;9.158;2023-02-23T12:28:27;99445.84;;;15.73;64.30
34177;BME280;20450;49.074;9.158;2023-02-23T12:31:01;99441.22;;;15.74;62.86
34177;BME280;20450;49.074;9.158;2023-02-23T12:33:43;99436.78;;;15.68;64.09
34177;BME280;20450;49.074;9.158;2023-02-23T12:36:32;99428.31;;;15.64;63.35
34177;BME280;20450;49.074;9.158;2023-02-23T12:39:13;99435.13;;;15.67;62.85
34177;BME280;20450;49.074;9.158;2023-02-23T12:41:51;99434.31;;;15.66;62.32
34177;BME280;20450;49.074;9.158;2023-02-23T12:44:36;99427.78;;;15.67;62.78
34177;BME280;20450;49.074;9.158;2023-02-23T12:47:32;99425.25;;;15.61;62.80
34177;BME280;20450;49.074;9.158;2023-02-23T12:50:10;99433.66;;;15.59;63.25
34177;BME280;20450;49.074;9.158;2023-02-23T12:52:59;99424.13;;;15.57;63.96
34177;BME280;20450;49.074;9.158;2023-02-23T12:55:38;99428.94;;;15.50;64.23
34177;BME280;20450;49.074;9.158;2023-02-23T12:58:23;99425.63;;;15.48;63.06
34177;BME280;20450;49.074;9.158;2023-02-23T13:01:07;99421.50;;;15.45;62.06
34177;BME280;20450;49.074;9.158;2023-02-23T13:04:13;99422.91;;;15.48;62.45
34177;BME280;20450;49.074;9.158;2023-02-23T13:07:00;99414.34;;;15.39;61.87
34177;BME280;20450;49.074;9.158;2023-02-23T13:10:04;99421.03;;;15.15;62.41
34177;BME280;20450;49.074;9.158;2023-02-23T13:12:48;99420.97;;;15.10;63.44
34177;BME280;20450;49.074;9.158;2023-02-23T13:15:30;99417.44;;;15.10;63.68
34177;BME280;20450;49.074;9.158;2023-02-23T13:18:17;99419.06;;;15.11;63.72
34177;BME280;20450;49.074;9.158;2023-02-23T13:20:54;99421.28;;;15.14;63.77
34177;BME280;20450;49.074;9.158;2023-02-23T13:23:35;99419.66;;;15.13;63.23
34177;BME280;20450;49.074;9.158;2023-02-23T13:26:16;99421.53;;;15.12;63.80
34177;BME280;20450;49.074;9.158;2023-02-23T13:28:59;99413.03;;;15.09;63.04
34177;BME280;20450;49.074;9.158;2023-02-23T13:31:34;99414.22;;;15.13;63.26
34177;BME280;20450;49.074;9.158;2023-02-23T13:34:10;99410.41;;;15.14;63.67
34177;BME280;20450;49.074;9.158;2023-02-23T13:36:43;99414.28;;;15.18;63.32
34177;BME280;20450;49.074;9.158;2023-02-23T13:39:38;99409.06;;;15.16;63.23